Flight Track Log - Related Links

Times and Time Zones

All times are in EDT time to prevent confusion due to time zone crossing. See the GJS3618 flight status page for this flight to view local times or setup timezone preferences in your user account.

Time Position Orientation Groundspeed Altitude Reporting Facility
EDT Latitude Longitude Course Direction KTS MPH feet Rate Location/Type
Fri 11:03:28 PM 42.0000 -87.9500 255° West 168 193 1,900  Level Chicago TRACON
Fri 11:04:34 PM 41.9833 -88.0333 255° West 218 251 3,800 1,800 Climbing Chicago TRACON
Fri 11:05:28 PM 41.9667 -88.1167 255° West 232 267 5,500 1,857 Climbing Chicago TRACON
Fri 11:05:58 PM 41.9669 -88.1578 271° West 231 266 6,400 2,176 Climbing Chicago Center
Fri 11:06:59 PM 41.9525 -88.2617 259° West 276 318 8,800 2,311 Climbing Chicago Center
Fri 11:08:00 PM 41.9408 -88.3678 262° West 290 334 11,100 1,707 Climbing Chicago Center
Fri 11:09:02 PM 41.9519 -88.4844 277° West 320 368 12,300 1,512 Climbing Chicago Center
Fri 11:10:03 PM 41.9633 -88.6086 277° West 335 386 14,200 1,805 Climbing Chicago Center
Fri 11:11:05 PM 41.9783 -88.7369 279° West 349 402 16,000 1,951 Climbing Chicago Center
Fri 11:12:06 PM 42.0000 -88.8969 280° West 364 419 18,200 1,902 Climbing Chicago Center
Fri 11:13:08 PM 42.0200 -89.0306 281° West 367 422 19,900 1,512 Climbing Chicago Center
Fri 11:14:09 PM 42.0419 -89.1675 282° West 377 434 21,300 1,328 Climbing Chicago Center
Fri 11:15:10 PM 42.0642 -89.3078 282° West 390 449 22,600 1,268 Climbing Chicago Center
Fri 11:16:12 PM 42.0875 -89.4606 282° West 387 445 23,900 1,171 Climbing Chicago Center
Fri 11:17:13 PM 42.1111 -89.6103 282° West 402 463 25,000 1,024 Climbing Chicago Center
Fri 11:18:15 PM 42.1364 -89.7608 283° West 409 471 26,000 1,122 Climbing Chicago Center
Fri 11:19:16 PM 42.1631 -89.9142 283° West 409 471 27,300 1,073 Climbing Chicago Center
Fri 11:20:18 PM 42.1903 -90.0644 284° West 413 475 28,200 878 Climbing Chicago Center
Fri 11:21:19 PM 42.2164 -90.2161 283° West 419 482 29,100 780 Climbing Chicago Center
Fri 11:22:21 PM 42.2450 -90.3703 284° West 425 489 29,800 780 Climbing Chicago Center
Fri 11:23:22 PM 42.2694 -90.5253 282° West 426 490 30,700 1,131 Climbing Chicago Center
Fri 11:24:23 PM 42.3008 -90.7047 283° West 414 476 32,100 1,268 Climbing Chicago Center
Fri 11:25:25 PM 42.3286 -90.8494 285° West 402 463 33,300 1,073 Climbing Chicago Center
Fri 11:26:26 PM 42.3650 -90.9828 290° West 387 445 34,300 780 Climbing Chicago Center
Fri 11:27:28 PM 42.4072 -91.1128 294° West 381 438 34,900 537 Climbing Chicago Center
Fri 11:28:29 PM 42.4492 -91.2422 294° West 380 437 35,400 492 Climbing Chicago Center
Fri 11:29:30 PM 42.4908 -91.3728 293° West 380 437 35,900 293 Climbing Chicago Center
Fri 11:30:32 PM 42.5328 -91.5050 293° West 382 440 36,000 49 Climbing Chicago Center
Fri 11:31:33 PM 42.5750 -91.6378 293° West 383 441 36,000  Level Chicago Center
Fri 11:32:34 PM 42.6172 -91.7719 293° West 384 442 36,000  Level Chicago Center
Fri 11:33:36 PM 42.6675 -91.9331 293° West 384 442 36,000  Level Chicago Center
Fri 11:34:37 PM 42.7094 -92.0675 293° West 387 445 36,000  Level Chicago Center
Fri 11:35:38 PM 42.7514 -92.2019 293° West 390 449 36,000  Level Chicago Center
Fri 11:36:40 PM 42.7928 -92.3369 293° West 390 449 36,000  Level Chicago Center
Fri 11:37:41 PM 42.8336 -92.4719 292° West 389 448 36,000  Level Chicago Center
Fri 11:38:42 PM 42.8750 -92.6089 292° West 392 451 36,000  Level Chicago Center
Fri 11:39:26 PM 42.9097 -92.7214 293° West 399 459 36,000  Level Minneapolis Center
Fri 11:40:28 PM 42.9525 -92.8606 293° West 400 460 36,000  Level Minneapolis Center
Fri 11:41:29 PM 42.9947 -93.0003 292° West 401 461 36,000  Level Minneapolis Center
Fri 11:42:30 PM 43.0367 -93.1408 292° West 403 464 36,000  Level Minneapolis Center
Fri 11:43:32 PM 43.0781 -93.2808 292° West 402 463 36,000  Level Minneapolis Center
Fri 11:44:33 PM 43.1161 -93.4581 286° West 407 468 36,000  Level Minneapolis Center
Fri 11:45:34 PM 43.1422 -93.6072 284° West 408 470 36,000  Level Minneapolis Center
Fri 11:46:36 PM 43.1683 -93.7542 284° West 402 463 36,000  Level Minneapolis Center
Fri 11:47:37 PM 43.1931 -93.9006 283° West 400 460 36,000  Level Minneapolis Center
Fri 11:48:38 PM 43.2186 -94.0456 284° West 396 456 36,000  Level Minneapolis Center
Fri 11:49:40 PM 43.2433 -94.1903 283° West 393 452 36,000 -293 Level Minneapolis Center
Fri 11:50:41 PM 43.2703 -94.3536 283° West 395 455 35,400 -537 Descending Minneapolis Center
Fri 11:51:54 PM 43.2944 -94.5003 283° West 394 453 34,800 -578 Descending Minneapolis Center
Fri 11:52:56 PM 43.3244 -94.6781 283° West 398 458 34,100 -390 Descending Minneapolis Center
Fri 11:53:57 PM 43.3483 -94.8261 283° West 398 458 34,000 -49 Descending Minneapolis Center
Fri 11:54:58 PM 43.3731 -94.9756 283° West 400 460 34,000  Level Minneapolis Center
Fri 11:55:59 PM 43.3972 -95.1231 283° West 398 458 34,000  Level Minneapolis Center
Fri 11:57:01 PM 43.4258 -95.3025 282° West 400 460 34,000  Level Minneapolis Center
Fri 11:58:02 PM 43.4489 -95.4528 282° West 401 461 34,000  Level Minneapolis Center
Fri 11:59:03 PM 43.4733 -95.6039 283° West 403 464 34,000  Level Minneapolis Center
Sat 12:00:04 AM 43.4961 -95.7539 282° West 402 463 34,000  Level Minneapolis Center
Sat 12:01:06 AM 43.5189 -95.9044 282° West 402 463 34,000  Level Minneapolis Center
Sat 12:02:07 AM 43.5419 -96.0561 282° West 403 464 34,000  Level Minneapolis Center
Sat 12:03:08 AM 43.5650 -96.2081 282° West 402 463 34,000  Level Minneapolis Center
Sat 12:04:09 AM 43.5881 -96.3614 282° West 405 466 34,000  Level Minneapolis Center
Sat 12:05:10 AM 43.6108 -96.5153 282° West 407 468 34,000  Level Minneapolis Center
Sat 12:06:24 AM 43.6375 -96.6981 281° West 405 466 34,000  Level Minneapolis Center
Sat 12:07:25 AM 43.6694 -96.8453 287° West 401 461 34,000  Level Minneapolis Center
Sat 12:08:26 AM 43.7147 -96.9836 294° West 392 451 34,000  Level Minneapolis Center
Sat 12:09:27 AM 43.7667 -97.1522 293° West 395 455 34,000  Level Minneapolis Center
Sat 12:10:28 AM 43.8108 -97.2900 294° West 392 451 34,000  Level Minneapolis Center
Sat 12:11:29 AM 43.8539 -97.4300 293° West 394 453 34,000  Level Minneapolis Center
Sat 12:12:30 AM 43.8969 -97.5697 293° West 394 453 34,000  Level Minneapolis Center
Sat 12:13:31 AM 43.9319 -97.6817 294° West 395 455 34,000  Level Minneapolis Center
Sat 12:14:32 AM 43.9833 -97.8492 293° West 393 452 34,000  Level Minneapolis Center
Sat 12:15:33 AM 44.0258 -97.9872 293° West 389 448 34,000  Level Minneapolis Center
Sat 12:16:34 AM 44.0672 -98.1275 292° West 391 450 34,000  Level Minneapolis Center
Sat 12:17:35 AM 44.1097 -98.2664 293° West 390 449 34,000  Level Minneapolis Center
Sat 12:18:36 AM 44.1525 -98.4064 293° West 393 452 34,000  Level Minneapolis Center
Sat 12:19:49 AM 44.1942 -98.5469 293° West 393 452 34,000  Level Minneapolis Center
Sat 12:20:51 AM 44.2433 -98.7119 293° West 391 450 34,000  Level Minneapolis Center
Sat 12:21:52 AM 44.2850 -98.8508 293° West 389 448 34,000  Level Minneapolis Center
Sat 12:22:52 AM 44.3342 -99.0183 292° West 387 445 34,000  Level Minneapolis Center
Sat 12:23:53 AM 44.3750 -99.1586 292° West 388 447 34,000  Level Minneapolis Center
Sat 12:24:54 AM 44.4153 -99.3014 292° West 391 450 34,000  Level Minneapolis Center
Sat 12:25:55 AM 44.4561 -99.4419 292° West 391 450 34,000  Level Minneapolis Center
Sat 12:26:56 AM 44.4958 -99.5856 291° West 392 451 34,000  Level Minneapolis Center
Sat 12:27:57 AM 44.5358 -99.7281 292° West 393 452 34,000  Level Minneapolis Center
Sat 12:28:58 AM 44.5767 -99.8722 292° West 394 453 34,000  Level Minneapolis Center
Sat 12:29:59 AM 44.6175 -100.0183 291° West 398 458 34,000  Level Minneapolis Center
Sat 12:31:00 AM 44.6583 -100.1650 291° West 400 460 34,000  Level Minneapolis Center
Sat 12:32:01 AM 44.6997 -100.3125 292° West 402 463 34,000  Level Minneapolis Center
Sat 12:33:02 AM 44.7394 -100.4597 291° West 401 461 34,000  Level Minneapolis Center
Sat 12:34:02 AM 44.7811 -100.6072 292° West 403 464 34,000  Level Minneapolis Center
Sat 12:35:03 AM 44.8208 -100.7564 291° West 404 465 34,000  Level Minneapolis Center
Sat 12:36:04 AM 44.8622 -100.9050 291° West 406 467 34,000  Level Minneapolis Center
Sat 12:37:05 AM 44.9042 -101.0536 292° West 407 468 34,000  Level Minneapolis Center
Sat 12:38:06 AM 44.9442 -101.2033 291° West 408 470 34,000  Level Minneapolis Center
Sat 12:39:06 AM 44.9836 -101.3528 291° West 406 467 34,000  Level Minneapolis Center
Sat 12:40:07 AM 45.0239 -101.5006 291° West 404 465 34,000  Level Minneapolis Center
Sat 12:41:08 AM 45.0636 -101.6522 290° West 409 471 34,000  Level Minneapolis Center
Sat 12:42:09 AM 45.0931 -101.8061 285° West 406 467 34,000  Level Minneapolis Center
Sat 12:43:10 AM 45.1142 -101.9661 281° West 411 473 34,000  Level Minneapolis Center
Sat 12:44:10 AM 45.1353 -102.1264 281° West 413 475 34,000  Level Minneapolis Center
Sat 12:45:11 AM 45.1622 -102.3194 281° West 416 479 34,000  Level Minneapolis Center
Sat 12:46:12 AM 45.1831 -102.4803 280° West 416 479 34,000  Level Minneapolis Center
Sat 12:47:12 AM 45.2028 -102.6419 280° West 416 479 34,000  Level Minneapolis Center
Sat 12:48:13 AM 45.2253 -102.8047 281° West 420 483 34,000  Level Minneapolis Center
Sat 12:49:14 AM 45.2450 -102.9683 280° West 421 484 34,000  Level Minneapolis Center
Sat 12:50:14 AM 45.2661 -103.1336 280° West 424 488 34,000  Level Minneapolis Center
Sat 12:51:01 AM 45.2786 -103.2431 279° West 425 489 34,000  Level Salt Lake Center
Sat 12:52:02 AM 45.2992 -103.4089 280° West 427 491 34,000  Level Salt Lake Center
Sat 12:53:04 AM 45.3192 -103.5714 280° West 423 487 34,000  Level Salt Lake Center
Sat 12:54:05 AM 45.3381 -103.7378 279° West 424 488 34,000  Level Salt Lake Center
Sat 12:55:06 AM 45.3583 -103.9058 280° West 427 491 34,000  Level Salt Lake Center
Sat 12:56:07 AM 45.3822 -104.1083 280° West 432 497 34,000  Level Salt Lake Center
Sat 12:57:08 AM 45.4014 -104.2789 279° West 434 499 34,000  Level Salt Lake Center
Sat 12:58:10 AM 45.4200 -104.4486 279° West 435 501 34,000  Level Salt Lake Center
Sat 12:59:11 AM 45.4383 -104.6122 279° West 429 494 34,000  Level Salt Lake Center
Sat 01:00:12 AM 45.4561 -104.7756 279° West 423 487 34,000  Level Salt Lake Center
Sat 01:01:14 AM 45.4728 -104.9347 279° West 414 476 34,000  Level Salt Lake Center
Sat 01:02:15 AM 45.4903 -105.0931 279° West 409 471 34,000  Level Salt Lake Center
Sat 01:03:16 AM 45.5061 -105.2508 278° West 406 467 34,000  Level Salt Lake Center
Sat 01:04:17 AM 45.5231 -105.4094 279° West 405 466 34,000  Level Salt Lake Center
Sat 01:05:18 AM 45.5400 -105.5686 279° West 405 466 34,000  Level Salt Lake Center
Sat 01:06:19 AM 45.5597 -105.7633 278° West 411 473 34,000  Level Salt Lake Center
Sat 01:07:20 AM 45.5756 -105.9264 278° West 414 476 34,000  Level Salt Lake Center
Sat 01:08:21 AM 45.5908 -106.0889 278° West 414 476 34,000  Level Salt Lake Center
Sat 01:09:23 AM 45.6069 -106.2536 278° West 417 480 34,000  Level Salt Lake Center
Sat 01:10:24 AM 45.6239 -106.4208 278° West 419 482 34,000  Level Salt Lake Center
Sat 01:11:25 AM 45.6378 -106.5861 277° West 422 486 34,000  Level Salt Lake Center
Sat 01:12:26 AM 45.6508 -106.7503 277° West 420 483 34,000  Level Salt Lake Center
Sat 01:13:27 AM 45.6647 -106.9167 277° West 420 483 34,000  Level Salt Lake Center
Sat 01:14:28 AM 45.6825 -107.0889 278° West 427 491 34,000  Level Salt Lake Center
Sat 01:15:29 AM 45.7003 -107.2761 278° West 429 494 34,000  Level Salt Lake Center
Sat 01:16:30 AM 45.7153 -107.4575 277° West 428 493 34,000  Level Salt Lake Center
Sat 01:17:31 AM 45.7297 -107.6244 277° West 434 499 34,000  Level Salt Lake Center
Sat 01:18:32 AM 45.7433 -107.7911 277° West 429 494 34,000  Level Salt Lake Center
Sat 01:19:33 AM 45.7581 -107.9731 277° West 429 494 34,000  Level Salt Lake Center
Sat 01:20:34 AM 45.7714 -108.1411 277° West 431 496 34,000  Level Salt Lake Center
Sat 01:21:35 AM 45.7842 -108.3072 276° West 423 487 34,000  Level Salt Lake Center
Sat 01:22:36 AM 45.7956 -108.4706 276° West 425 489 34,000  Level Salt Lake Center
Sat 01:23:37 AM 45.8075 -108.6583 275° West 447 514 34,000 -738 Level Salt Lake Center
Sat 01:24:38 AM 45.8081 -108.8406 270° West 431 496 32,500 -1,721 Descending Salt Lake Center
Sat 01:25:39 AM 45.8078 -109.0133 270° West 432 497 30,500 -1,967 Descending Salt Lake Center
Sat 01:26:40 AM 45.8069 -109.1844 270° West 438 504 28,500 -2,016 Descending Salt Lake Center
Sat 01:27:41 AM 45.8058 -109.3692 270° West 434 499 26,400 -2,016 Descending Salt Lake Center
Sat 01:28:42 AM 45.8047 -109.5347 270° West 424 488 24,400 -1,967 Descending Salt Lake Center
Sat 01:29:43 AM 45.8033 -109.6956 269° West 408 470 22,400 -1,967 Descending Salt Lake Center
Sat 01:30:44 AM 45.8008 -109.8508 269° West 398 458 20,400 -1,918 Descending Salt Lake Center
Sat 01:31:45 AM 45.8189 -109.9950 280° West 388 447 18,500 -1,869 Descending Salt Lake Center
Sat 01:32:46 AM 45.8450 -110.1597 283° West 383 441 16,600 -1,918 Descending Salt Lake Center
Sat 01:33:47 AM 45.8664 -110.2964 283° West 377 434 14,600 -1,279 Descending Salt Lake Center
Sat 01:34:48 AM 45.8867 -110.4322 282° West 372 428 14,000 -295 Descending Salt Lake Center
Sat 01:35:49 AM 45.9117 -110.5933 283° West 371 427 14,000 -397 Level Salt Lake Center
Sat 01:36:49 AM 45.9328 -110.7203 283° West 366 421 13,200 -893 Descending Salt Lake Center
Sat 01:37:50 AM 45.9539 -110.8703 281° West 378 435 12,200 -590 Descending Salt Lake Center
Sat 01:38:51 AM 45.9769 -111.0150 283° West 380 437 12,000 -98 Descending Salt Lake Center
Sat 01:39:52 AM 46.0022 -111.1853 282° West 372 428 12,000 -49 Level Salt Lake Center
Sat 01:40:53 AM 46.0128 -111.2961 278° West 301 346 11,900 -1,131 Descending Salt Lake Center
Sat 01:41:54 AM 45.9800 -111.3811 241° Southwest 262 302 9,700 -1,967 Descending Salt Lake Center
Sat 01:42:55 AM 45.9264 -111.3656 169° South 236 272 7,900 -1,377 Descending Salt Lake Center
Sat 01:43:56 AM 45.8875 -111.3056 133° Southeast 219 252 6,900 -893 Descending Salt Lake Center
Sat 01:44:56 AM 45.8542 -111.2592 136° Southeast 192 221 6,100 -744 Descending Salt Lake Center
Sat 01:45:57 AM 45.8225 -111.2150 136° Southeast 170 196 5,400 -689 Descending Salt Lake Center
Sat 01:46:58 AM 45.7939 -111.1756 136° Southeast 157 181 4,700 -689 Descending Salt Lake Center

Login

Don't have an account? Register now (free) for customized features, flight alerts, and more!